sensor_id;sensor_type;location;lat;lon;timestamp;temperature;humidity
70826;SHT31;58446;41.490;22.098;2023-06-10T00:01:37;24.47;62.42
70826;SHT31;58446;41.490;22.098;2023-06-10T00:04:04;24.50;62.46
70826;SHT31;58446;41.490;22.098;2023-06-10T00:06:30;24.55;62.45
70826;SHT31;58446;41.490;22.098;2023-06-10T00:09:04;24.44;62.84
70826;SHT31;58446;41.490;22.098;2023-06-10T00:11:35;24.36;62.86
70826;SHT31;58446;41.490;22.098;2023-06-10T00:14:01;24.49;62.41
70826;SHT31;58446;41.490;22.098;2023-06-10T00:16:27;24.46;62.75
70826;SHT31;58446;41.490;22.098;2023-06-10T00:18:53;24.12;63.50
70826;SHT31;58446;41.490;22.098;2023-06-10T00:21:21;24.06;63.69
70826;SHT31;58446;41.490;22.098;2023-06-10T00:23:47;24.22;62.91
70826;SHT31;58446;41.490;22.098;2023-06-10T00:26:13;24.32;62.84
70826;SHT31;58446;41.490;22.098;2023-06-10T00:28:39;24.19;62.99
70826;SHT31;58446;41.490;22.098;2023-06-10T00:31:05;24.13;63.24
70826;SHT31;58446;41.490;22.098;2023-06-10T00:33:31;23.95;63.73
70826;SHT31;58446;41.490;22.098;2023-06-10T00:35:57;23.65;64.80
70826;SHT31;58446;41.490;22.098;2023-06-10T00:38:22;23.85;64.29
70826;SHT31;58446;41.490;22.098;2023-06-10T00:40:48;23.86;64.06
70826;SHT31;58446;41.490;22.098;2023-06-10T00:43:23;23.77;64.65
70826;SHT31;58446;41.490;22.098;2023-06-10T00:45:49;23.55;65.53
70826;SHT31;58446;41.490;22.098;2023-06-10T00:48:16;23.64;64.81
70826;SHT31;58446;41.490;22.098;2023-06-10T00:50:42;23.71;64.70
70826;SHT31;58446;41.490;22.098;2023-06-10T00:53:08;23.86;63.98
70826;SHT31;58446;41.490;22.098;2023-06-10T00:55:34;23.81;64.16
70826;SHT31;58446;41.490;22.098;2023-06-10T00:58:00;23.85;63.93
70826;SHT31;58446;41.490;22.098;2023-06-10T01:00:27;23.86;63.55
70826;SHT31;58446;41.490;22.098;2023-06-10T01:02:53;23.90;63.51
70826;SHT31;58446;41.490;22.098;2023-06-10T01:05:19;24.12;62.78
70826;SHT31;58446;41.490;22.098;2023-06-10T01:13:11;24.08;62.66
70826;SHT31;58446;41.490;22.098;2023-06-10T01:15:39;23.85;62.82
70826;SHT31;58446;41.490;22.098;2023-06-10T01:18:08;23.79;63.24
70826;SHT31;58446;41.490;22.098;2023-06-10T01:20:37;23.68;63.68
70826;SHT31;58446;41.490;22.098;2023-06-10T01:23:06;23.92;62.89
70826;SHT31;58446;41.490;22.098;2023-06-10T01:25:33;23.98;62.65
70826;SHT31;58446;41.490;22.098;2023-06-10T01:28:28;23.97;62.54
70826;SHT31;58446;41.490;22.098;2023-06-10T01:33:52;23.82;62.99
70826;SHT31;58446;41.490;22.098;2023-06-10T01:36:19;23.69;63.08
70826;SHT31;58446;41.490;22.098;2023-06-10T01:38:47;23.75;63.00
70826;SHT31;58446;41.490;22.098;2023-06-10T01:41:18;23.75;62.60
70826;SHT31;58446;41.490;22.098;2023-06-10T01:43:47;23.85;62.35
70826;SHT31;58446;41.490;22.098;2023-06-10T01:46:13;23.84;62.08
70826;SHT31;58446;41.490;22.098;2023-06-10T01:48:41;23.97;61.75
70826;SHT31;58446;41.490;22.098;2023-06-10T01:51:08;23.89;61.87
70826;SHT31;58446;41.490;22.098;2023-06-10T01:53:33;23.95;61.72
70826;SHT31;58446;41.490;22.098;2023-06-10T01:55:59;23.77;61.87
70826;SHT31;58446;41.490;22.098;2023-06-10T01:58:25;23.84;61.94
70826;SHT31;58446;41.490;22.098;2023-06-10T02:00:51;23.82;62.02
70826;SHT31;58446;41.490;22.098;2023-06-10T02:03:16;23.72;62.41
70826;SHT31;58446;41.490;22.098;2023-06-10T02:05:43;23.68;62.40
70826;SHT31;58446;41.490;22.098;2023-06-10T02:08:09;23.65;62.52
70826;SHT31;58446;41.490;22.098;2023-06-10T02:10:35;23.46;63.05
70826;SHT31;58446;41.490;22.098;2023-06-10T02:13:01;23.53;62.89
70826;SHT31;58446;41.490;22.098;2023-06-10T02:15:26;23.53;62.82
70826;SHT31;58446;41.490;22.098;2023-06-10T02:17:52;23.31;63.56
70826;SHT31;58446;41.490;22.098;2023-06-10T02:20:18;23.26;63.84
70826;SHT31;58446;41.490;22.098;2023-06-10T02:22:44;23.28;63.90
70826;SHT31;58446;41.490;22.098;2023-06-10T02:25:10;23.14;64.32
70826;SHT31;58446;41.490;22.098;2023-06-10T02:27:36;22.92;65.21
70826;SHT31;58446;41.490;22.098;2023-06-10T02:30:01;23.06;64.82
70826;SHT31;58446;41.490;22.098;2023-06-10T02:32:27;22.97;64.97
70826;SHT31;58446;41.490;22.098;2023-06-10T02:34:53;22.63;66.74
70826;SHT31;58446;41.490;22.098;2023-06-10T02:37:19;22.66;66.09
70826;SHT31;58446;41.490;22.098;2023-06-10T02:39:46;22.37;67.26
70826;SHT31;58446;41.490;22.098;2023-06-10T02:42:11;22.56;66.47
70826;SHT31;58446;41.490;22.098;2023-06-10T02:44:38;22.66;66.18
70826;SHT31;58446;41.490;22.098;2023-06-10T02:47:04;22.86;65.80
70826;SHT31;58446;41.490;22.098;2023-06-10T02:49:30;22.93;65.36
70826;SHT31;58446;41.490;22.098;2023-06-10T02:51:56;22.90;65.50
70826;SHT31;58446;41.490;22.098;2023-06-10T02:54:23;22.85;65.62
70826;SHT31;58446;41.490;22.098;2023-06-10T02:56:49;23.00;65.28
70826;SHT31;58446;41.490;22.098;2023-06-10T02:59:15;22.82;65.82
70826;SHT31;58446;41.490;22.098;2023-06-10T03:01:41;22.77;65.78
70826;SHT31;58446;41.490;22.098;2023-06-10T03:04:07;22.72;65.86
70826;SHT31;58446;41.490;22.098;2023-06-10T03:06:34;22.63;66.08
70826;SHT31;58446;41.490;22.098;2023-06-10T03:09:01;22.73;65.81
70826;SHT31;58446;41.490;22.098;2023-06-10T03:11:27;22.79;65.67
70826;SHT31;58446;41.490;22.098;2023-06-10T03:13:53;22.89;65.19
70826;SHT31;58446;41.490;22.098;2023-06-10T03:16:21;22.90;65.15
70826;SHT31;58446;41.490;22.098;2023-06-10T03:18:48;23.02;64.73
70826;SHT31;58446;41.490;22.098;2023-06-10T03:21:14;22.90;65.03
70826;SHT31;58446;41.490;22.098;2023-06-10T03:23:40;22.97;64.83
70826;SHT31;58446;41.490;22.098;2023-06-10T03:26:05;22.99;64.84
70826;SHT31;58446;41.490;22.098;2023-06-10T03:28:31;23.03;64.53
70826;SHT31;58446;41.490;22.098;2023-06-10T03:30:57;23.04;64.53
70826;SHT31;58446;41.490;22.098;2023-06-10T03:33:23;22.99;64.63
70826;SHT31;58446;41.490;22.098;2023-06-10T03:35:49;22.90;64.81
70826;SHT31;58446;41.490;22.098;2023-06-10T03:38:15;22.96;64.70
70826;SHT31;58446;41.490;22.098;2023-06-10T03:40:41;22.83;65.10
70826;SHT31;58446;41.490;22.098;2023-06-10T03:43:07;22.86;65.05
70826;SHT31;58446;41.490;22.098;2023-06-10T03:45:33;22.77;65.19
70826;SHT31;58446;41.490;22.098;2023-06-10T03:48:00;22.47;66.10
70826;SHT31;58446;41.490;22.098;2023-06-10T03:50:26;22.49;66.17
70826;SHT31;58446;41.490;22.098;2023-06-10T03:52:52;22.53;66.19
70826;SHT31;58446;41.490;22.098;2023-06-10T03:55:18;22.59;65.99
70826;SHT31;58446;41.490;22.098;2023-06-10T03:57:47;22.70;65.74
70826;SHT31;58446;41.490;22.098;2023-06-10T04:00:14;22.85;65.25
70826;SHT31;58446;41.490;22.098;2023-06-10T04:02:40;22.88;65.34
70826;SHT31;58446;41.490;22.098;2023-06-10T04:05:15;22.90;65.28
70826;SHT31;58446;41.490;22.098;2023-06-10T04:07:42;22.95;65.34
70826;SHT31;58446;41.490;22.098;2023-06-10T04:10:10;22.99;65.38
70826;SHT31;58446;41.490;22.098;2023-06-10T04:12:37;23.02;65.25
70826;SHT31;58446;41.490;22.098;2023-06-10T04:15:04;22.86;66.52
70826;SHT31;58446;41.490;22.098;2023-06-10T04:17:30;23.24;64.55
70826;SHT31;58446;41.490;22.098;2023-06-10T04:19:56;23.27;65.06
70826;SHT31;58446;41.490;22.098;2023-06-10T04:22:23;23.36;65.44
70826;SHT31;58446;41.490;22.098;2023-06-10T04:24:49;23.50;65.55
70826;SHT31;58446;41.490;22.098;2023-06-10T04:27:14;23.48;65.42
70826;SHT31;58446;41.490;22.098;2023-06-10T04:29:41;23.51;66.14
70826;SHT31;58446;41.490;22.098;2023-06-10T04:32:07;23.48;65.30
70826;SHT31;58446;41.490;22.098;2023-06-10T04:34:33;23.46;65.94
70826;SHT31;58446;41.490;22.098;2023-06-10T04:36:59;23.54;65.03
70826;SHT31;58446;41.490;22.098;2023-06-10T04:39:25;23.69;64.68
70826;SHT31;58446;41.490;22.098;2023-06-10T04:41:51;23.68;64.88
70826;SHT31;58446;41.490;22.098;2023-06-10T04:44:17;23.78;65.47
70826;SHT31;58446;41.490;22.098;2023-06-10T04:46:44;23.97;65.15
70826;SHT31;58446;41.490;22.098;2023-06-10T04:49:10;23.94;65.25
70826;SHT31;58446;41.490;22.098;2023-06-10T04:51:35;24.25;63.60
70826;SHT31;58446;41.490;22.098;2023-06-10T04:54:01;23.85;64.98
70826;SHT31;58446;41.490;22.098;2023-06-10T04:56:29;23.97;64.98
70826;SHT31;58446;41.490;22.098;2023-06-10T04:58:56;23.82;64.88
70826;SHT31;58446;41.490;22.098;2023-06-10T05:01:23;23.78;65.24
70826;SHT31;58446;41.490;22.098;2023-06-10T05:03:49;23.82;66.21
70826;SHT31;58446;41.490;22.098;2023-06-10T05:06:14;24.04;64.02
70826;SHT31;58446;41.490;22.098;2023-06-10T05:08:40;24.26;64.53
70826;SHT31;58446;41.490;22.098;2023-06-10T05:11:06;24.36;63.63
70826;SHT31;58446;41.490;22.098;2023-06-10T05:13:32;24.63;62.56
70826;SHT31;58446;41.490;22.098;2023-06-10T05:15:58;24.68;62.05
70826;SHT31;58446;41.490;22.098;2023-06-10T05:18:24;24.77;61.96
70826;SHT31;58446;41.490;22.098;2023-06-10T05:20:50;24.84;62.08
70826;SHT31;58446;41.490;22.098;2023-06-10T05:23:16;24.91;63.77
70826;SHT31;58446;41.490;22.098;2023-06-10T05:25:42;25.18;62.01
70826;SHT31;58446;41.490;22.098;2023-06-10T05:28:09;25.37;62.63
70826;SHT31;58446;41.490;22.098;2023-06-10T05:30:38;25.43;62.00
70826;SHT31;58446;41.490;22.098;2023-06-10T05:33:04;25.63;60.32
70826;SHT31;58446;41.490;22.098;2023-06-10T05:35:30;25.80;59.78
70826;SHT31;58446;41.490;22.098;2023-06-10T05:37:56;25.82;60.97
70826;SHT31;58446;41.490;22.098;2023-06-10T05:40:22;25.99;58.93
70826;SHT31;58446;41.490;22.098;2023-06-10T05:42:48;26.01;60.68
70826;SHT31;58446;41.490;22.098;2023-06-10T05:45:13;25.87;60.07
70826;SHT31;58446;41.490;22.098;2023-06-10T05:47:39;25.86;58.91
70826;SHT31;58446;41.490;22.098;2023-06-10T05:50:06;25.93;60.32
70826;SHT31;58446;41.490;22.098;2023-06-10T05:52:35;25.92;61.39
70826;SHT31;58446;41.490;22.098;2023-06-10T05:55:02;26.07;59.84
70826;SHT31;58446;41.490;22.098;2023-06-10T05:57:28;26.27;60.16
70826;SHT31;58446;41.490;22.098;2023-06-10T05:59:53;26.27;58.33
70826;SHT31;58446;41.490;22.098;2023-06-10T06:02:19;26.55;59.04
70826;SHT31;58446;41.490;22.098;2023-06-10T06:04:45;26.67;60.02
70826;SHT31;58446;41.490;22.098;2023-06-10T06:07:11;26.87;58.21
70826;SHT31;58446;41.490;22.098;2023-06-10T06:09:37;26.91;57.77
70826;SHT31;58446;41.490;22.098;2023-06-10T06:12:02;27.00;58.65
70826;SHT31;58446;41.490;22.098;2023-06-10T06:14:30;27.09;58.20
70826;SHT31;58446;41.490;22.098;2023-06-10T06:16:57;27.15;56.53
70826;SHT31;58446;41.490;22.098;2023-06-10T06:19:22;27.26;59.18
70826;SHT31;58446;41.490;22.098;2023-06-10T06:21:48;27.23;57.24
70826;SHT31;58446;41.490;22.098;2023-06-10T06:24:16;27.26;58.45
70826;SHT31;58446;41.490;22.098;2023-06-10T06:26:42;27.33;56.17
70826;SHT31;58446;41.490;22.098;2023-06-10T06:29:07;27.09;57.13
70826;SHT31;58446;41.490;22.098;2023-06-10T06:31:33;27.19;58.55
70826;SHT31;58446;41.490;22.098;2023-06-10T06:33:59;27.28;56.00
70826;SHT31;58446;41.490;22.098;2023-06-10T06:36:25;27.13;56.84
70826;SHT31;58446;41.490;22.098;2023-06-10T06:38:51;27.16;59.00
70826;SHT31;58446;41.490;22.098;2023-06-10T06:41:17;26.98;57.66
70826;SHT31;58446;41.490;22.098;2023-06-10T06:43:43;26.96;58.43
70826;SHT31;58446;41.490;22.098;2023-06-10T06:46:09;26.78;57.66
70826;SHT31;58446;41.490;22.098;2023-06-10T06:48:35;26.59;59.22
70826;SHT31;58446;41.490;22.098;2023-06-10T06:51:01;26.43;58.83
70826;SHT31;58446;41.490;22.098;2023-06-10T06:53:26;26.52;58.63
70826;SHT31;58446;41.490;22.098;2023-06-10T06:55:52;26.58;59.20
70826;SHT31;58446;41.490;22.098;2023-06-10T06:58:18;26.54;58.94
70826;SHT31;58446;41.490;22.098;2023-06-10T07:00:43;26.51;58.72
70826;SHT31;58446;41.490;22.098;2023-06-10T07:03:09;26.40;58.76
70826;SHT31;58446;41.490;22.098;2023-06-10T07:05:35;26.24;59.28
70826;SHT31;58446;41.490;22.098;2023-06-10T07:08:00;26.23;59.90
70826;SHT31;58446;41.490;22.098;2023-06-10T07:10:26;26.37;61.59
70826;SHT31;58446;41.490;22.098;2023-06-10T07:12:52;26.59;59.55
70826;SHT31;58446;41.490;22.098;2023-06-10T07:15:18;26.54;58.98
70826;SHT31;58446;41.490;22.098;2023-06-10T07:17:44;26.59;59.89
70826;SHT31;58446;41.490;22.098;2023-06-10T07:20:10;26.75;58.05
70826;SHT31;58446;41.490;22.098;2023-06-10T07:22:36;26.62;58.14
70826;SHT31;58446;41.490;22.098;2023-06-10T07:25:04;26.64;58.41
70826;SHT31;58446;41.490;22.098;2023-06-10T07:27:31;26.75;58.05
70826;SHT31;58446;41.490;22.098;2023-06-10T07:29:56;26.88;59.45
70826;SHT31;58446;41.490;22.098;2023-06-10T07:32:22;27.06;59.10
70826;SHT31;58446;41.490;22.098;2023-06-10T07:34:49;27.28;57.08
70826;SHT31;58446;41.490;22.098;2023-06-10T07:37:16;27.47;55.73
70826;SHT31;58446;41.490;22.098;2023-06-10T07:39:41;27.56;55.70
70826;SHT31;58446;41.490;22.098;2023-06-10T07:42:08;27.84;55.13
70826;SHT31;58446;41.490;22.098;2023-06-10T07:44:35;27.94;55.00
70826;SHT31;58446;41.490;22.098;2023-06-10T07:47:00;28.05;53.64
70826;SHT31;58446;41.490;22.098;2023-06-10T07:49:26;28.08;53.73
70826;SHT31;58446;41.490;22.098;2023-06-10T07:51:54;28.28;53.85
70826;SHT31;58446;41.490;22.098;2023-06-10T07:54:20;28.38;54.16
70826;SHT31;58446;41.490;22.098;2023-06-10T07:56:46;28.41;53.19
70826;SHT31;58446;41.490;22.098;2023-06-10T07:59:13;28.44;53.70
70826;SHT31;58446;41.490;22.098;2023-06-10T08:01:39;28.22;54.35
70826;SHT31;58446;41.490;22.098;2023-06-10T08:04:05;28.19;53.29
70826;SHT31;58446;41.490;22.098;2023-06-10T08:06:31;28.32;53.59
70826;SHT31;58446;41.490;22.098;2023-06-10T08:08:57;28.32;54.36
70826;SHT31;58446;41.490;22.098;2023-06-10T08:11:23;28.42;53.53
70826;SHT31;58446;41.490;22.098;2023-06-10T08:13:49;28.49;53.08
70826;SHT31;58446;41.490;22.098;2023-06-10T08:16:14;28.63;52.64
70826;SHT31;58446;41.490;22.098;2023-06-10T08:18:40;28.72;53.02
70826;SHT31;58446;41.490;22.098;2023-06-10T08:21:06;28.84;51.51
70826;SHT31;58446;41.490;22.098;2023-06-10T08:23:32;28.82;52.21
70826;SHT31;58446;41.490;22.098;2023-06-10T08:25:57;28.76;51.72
70826;SHT31;58446;41.490;22.098;2023-06-10T08:28:23;28.60;54.29
70826;SHT31;58446;41.490;22.098;2023-06-10T08:30:49;28.46;53.83
70826;SHT31;58446;41.490;22.098;2023-06-10T08:33:15;28.60;53.50
70826;SHT31;58446;41.490;22.098;2023-06-10T08:35:40;28.65;52.17
70826;SHT31;58446;41.490;22.098;2023-06-10T08:38:06;28.45;51.15
70826;SHT31;58446;41.490;22.098;2023-06-10T08:40:33;28.31;52.24
70826;SHT31;58446;41.490;22.098;2023-06-10T08:43:05;28.56;53.88
70826;SHT31;58446;41.490;22.098;2023-06-10T08:45:35;28.72;51.39
70826;SHT31;58446;41.490;22.098;2023-06-10T08:48:02;28.87;51.02
70826;SHT31;58446;41.490;22.098;2023-06-10T08:50:34;28.76;51.26
70826;SHT31;58446;41.490;22.098;2023-06-10T08:53:01;28.86;52.96
70826;SHT31;58446;41.490;22.098;2023-06-10T08:55:35;28.76;51.05
70826;SHT31;58446;41.490;22.098;2023-06-10T08:58:02;28.82;50.31
70826;SHT31;58446;41.490;22.098;2023-06-10T09:00:29;28.70;51.34
70826;SHT31;58446;41.490;22.098;2023-06-10T09:02:58;28.86;50.57
70826;SHT31;58446;41.490;22.098;2023-06-10T09:05:24;28.96;50.31
70826;SHT31;58446;41.490;22.098;2023-06-10T09:07:52;28.93;50.39
70826;SHT31;58446;41.490;22.098;2023-06-10T09:10:18;29.06;51.97
70826;SHT31;58446;41.490;22.098;2023-06-10T09:12:44;29.16;50.78
70826;SHT31;58446;41.490;22.098;2023-06-10T09:15:10;29.21;50.71
70826;SHT31;58446;41.490;22.098;2023-06-10T09:17:39;29.35;50.42
70826;SHT31;58446;41.490;22.098;2023-06-10T09:20:07;29.39;50.14
70826;SHT31;58446;41.490;22.098;2023-06-10T09:22:33;29.48;49.91
70826;SHT31;58446;41.490;22.098;2023-06-10T09:25:06;29.55;49.31
70826;SHT31;58446;41.490;22.098;2023-06-10T09:27:45;29.54;49.66
70826;SHT31;58446;41.490;22.098;2023-06-10T09:32:55;29.46;49.11
70826;SHT31;58446;41.490;22.098;2023-06-10T09:35:24;29.38;49.13
70826;SHT31;58446;41.490;22.098;2023-06-10T09:37:56;29.39;51.91
70826;SHT31;58446;41.490;22.098;2023-06-10T09:40:22;29.48;49.42
70826;SHT31;58446;41.490;22.098;2023-06-10T09:42:56;29.62;50.85
70826;SHT31;58446;41.490;22.098;2023-06-10T09:45:23;29.62;47.58
70826;SHT31;58446;41.490;22.098;2023-06-10T09:47:53;29.61;48.92
70826;SHT31;58446;41.490;22.098;2023-06-10T09:50:19;29.64;49.94
70826;SHT31;58446;41.490;22.098;2023-06-10T09:52:46;29.68;50.13
70826;SHT31;58446;41.490;22.098;2023-06-10T09:55:13;29.72;49.35
70826;SHT31;58446;41.490;22.098;2023-06-10T09:57:39;29.74;49.28
70826;SHT31;58446;41.490;22.098;2023-06-10T10:00:08;29.78;49.16
70826;SHT31;58446;41.490;22.098;2023-06-10T10:02:51;29.81;49.50
70826;SHT31;58446;41.490;22.098;2023-06-10T10:05:20;29.64;51.42
70826;SHT31;58446;41.490;22.098;2023-06-10T10:07:47;29.67;48.85
70826;SHT31;58446;41.490;22.098;2023-06-10T10:10:17;29.55;50.95
70826;SHT31;58446;41.490;22.098;2023-06-10T10:12:46;29.59;49.66
70826;SHT31;58446;41.490;22.098;2023-06-10T10:15:12;29.72;49.77
70826;SHT31;58446;41.490;22.098;2023-06-10T10:20:31;29.85;48.72
70826;SHT31;58446;41.490;22.098;2023-06-10T10:22:59;29.92;48.94
70826;SHT31;58446;41.490;22.098;2023-06-10T10:25:28;29.90;49.33
70826;SHT31;58446;41.490;22.098;2023-06-10T10:27:58;29.95;50.45
70826;SHT31;58446;41.490;22.098;2023-06-10T10:30:25;30.08;49.50
70826;SHT31;58446;41.490;22.098;2023-06-10T10:33:03;30.19;48.67
70826;SHT31;58446;41.490;22.098;2023-06-10T10:35:30;30.04;49.04
70826;SHT31;58446;41.490;22.098;2023-06-10T10:37:58;29.75;49.76
70826;SHT31;58446;41.490;22.098;2023-06-10T10:40:25;29.50;51.11
70826;SHT31;58446;41.490;22.098;2023-06-10T10:42:56;29.10;50.74
70826;SHT31;58446;41.490;22.098;2023-06-10T10:45:22;29.18;50.42
70826;SHT31;58446;41.490;22.098;2023-06-10T10:47:52;29.26;49.11
70826;SHT31;58446;41.490;22.098;2023-06-10T10:50:20;29.21;50.33
70826;SHT31;58446;41.490;22.098;2023-06-10T10:52:56;29.16;49.87
70826;SHT31;58446;41.490;22.098;2023-06-10T10:55:28;29.21;49.64
70826;SHT31;58446;41.490;22.098;2023-06-10T10:57:55;29.27;49.59
70826;SHT31;58446;41.490;22.098;2023-06-10T11:00:29;28.97;50.03
70826;SHT31;58446;41.490;22.098;2023-06-10T11:03:09;29.21;53.80
70826;SHT31;58446;41.490;22.098;2023-06-10T11:05:40;29.54;51.72
70826;SHT31;58446;41.490;22.098;2023-06-10T11:08:08;29.84;49.58
70826;SHT31;58446;41.490;22.098;2023-06-10T11:10:50;30.08;48.36
70826;SHT31;58446;41.490;22.098;2023-06-10T11:13:19;30.25;48.61
70826;SHT31;58446;41.490;22.098;2023-06-10T11:15:49;30.10;47.83
70826;SHT31;58446;41.490;22.098;2023-06-10T11:18:30;29.99;47.60
70826;SHT31;58446;41.490;22.098;2023-06-10T11:21:02;30.06;47.73
70826;SHT31;58446;41.490;22.098;2023-06-10T11:23:33;30.18;44.91
70826;SHT31;58446;41.490;22.098;2023-06-10T11:26:20;30.22;46.91
70826;SHT31;58446;41.490;22.098;2023-06-10T11:31:23;30.30;46.34
70826;SHT31;58446;41.490;22.098;2023-06-10T11:34:05;30.36;46.22
70826;SHT31;58446;41.490;22.098;2023-06-10T11:36:34;30.46;46.89
70826;SHT31;58446;41.490;22.098;2023-06-10T11:39:02;30.56;45.98
70826;SHT31;58446;41.490;22.098;2023-06-10T11:41:29;30.63;45.15
70826;SHT31;58446;41.490;22.098;2023-06-10T11:44:09;30.67;45.44
70826;SHT31;58446;41.490;22.098;2023-06-10T11:46:36;30.76;44.97
70826;SHT31;58446;41.490;22.098;2023-06-10T11:49:02;30.83;44.99
70826;SHT31;58446;41.490;22.098;2023-06-10T11:51:32;30.86;46.00
70826;SHT31;58446;41.490;22.098;2023-06-10T11:53:58;30.76;45.40
70826;SHT31;58446;41.490;22.098;2023-06-10T11:56:29;30.77;45.19
70826;SHT31;58446;41.490;22.098;2023-06-10T11:58:56;30.71;44.91
70826;SHT31;58446;41.490;22.098;2023-06-10T12:01:24;30.70;44.18
70826;SHT31;58446;41.490;22.098;2023-06-10T12:04:00;30.70;44.07
70826;SHT31;58446;41.490;22.098;2023-06-10T12:06:27;30.68;44.60
70826;SHT31;58446;41.490;22.098;2023-06-10T12:08:53;30.73;44.72
70826;SHT31;58446;41.490;22.098;2023-06-10T12:11:20;30.88;44.88
70826;SHT31;58446;41.490;22.098;2023-06-10T12:13:48;30.88;44.19
70826;SHT31;58446;41.490;22.098;2023-06-10T12:16:15;30.77;44.01
70826;SHT31;58446;41.490;22.098;2023-06-10T12:18:43;30.43;44.12
70826;SHT31;58446;41.490;22.098;2023-06-10T12:21:20;30.33;45.43
70826;SHT31;58446;41.490;22.098;2023-06-10T12:24:18;30.37;44.94
70826;SHT31;58446;41.490;22.098;2023-06-10T12:26:44;30.36;45.94
70826;SHT31;58446;41.490;22.098;2023-06-10T12:29:21;30.43;46.26
70826;SHT31;58446;41.490;22.098;2023-06-10T12:32:03;30.40;45.37
70826;SHT31;58446;41.490;22.098;2023-06-10T12:37:02;30.53;46.65
70826;SHT31;58446;41.490;22.098;2023-06-10T12:39:30;30.56;47.44
70826;SHT31;58446;41.490;22.098;2023-06-10T12:41:57;30.67;46.36
70826;SHT31;58446;41.490;22.098;2023-06-10T12:44:30;30.71;46.76
70826;SHT31;58446;41.490;22.098;2023-06-10T12:46:56;30.68;45.84
70826;SHT31;58446;41.490;22.098;2023-06-10T12:49:22;30.61;46.27
70826;SHT31;58446;41.490;22.098;2023-06-10T12:51:48;30.61;45.78
70826;SHT31;58446;41.490;22.098;2023-06-10T12:54:14;30.63;45.59
70826;SHT31;58446;41.490;22.098;2023-06-10T12:56:40;30.67;44.18
70826;SHT31;58446;41.490;22.098;2023-06-10T12:59:07;30.57;45.01
70826;SHT31;58446;41.490;22.098;2023-06-10T13:01:33;30.41;44.74
70826;SHT31;58446;41.490;22.098;2023-06-10T13:03:59;30.27;45.33
70826;SHT31;58446;41.490;22.098;2023-06-10T13:06:25;30.27;44.94
70826;SHT31;58446;41.490;22.098;2023-06-10T13:08:51;30.33;46.07
70826;SHT31;58446;41.490;22.098;2023-06-10T13:11:16;30.22;45.80
70826;SHT31;58446;41.490;22.098;2023-06-10T13:13:42;30.23;46.29
70826;SHT31;58446;41.490;22.098;2023-06-10T13:16:08;30.16;46.32
70826;SHT31;58446;41.490;22.098;2023-06-10T13:18:34;29.96;46.83
70826;SHT31;58446;41.490;22.098;2023-06-10T13:21:05;29.82;46.56
70826;SHT31;58446;41.490;22.098;2023-06-10T13:23:31;29.57;47.13
70826;SHT31;58446;41.490;22.098;2023-06-10T13:25:57;29.38;47.19
70826;SHT31;58446;41.490;22.098;2023-06-10T13:28:23;29.23;48.25
70826;SHT31;58446;41.490;22.098;2023-06-10T13:30:50;29.16;48.49
70826;SHT31;58446;41.490;22.098;2023-06-10T13:33:16;29.04;49.43
70826;SHT31;58446;41.490;22.098;2023-06-10T13:35:41;28.96;49.35
70826;SHT31;58446;41.490;22.098;2023-06-10T13:38:07;28.89;49.82
70826;SHT31;58446;41.490;22.098;2023-06-10T13:40:33;28.82;49.96
70826;SHT31;58446;41.490;22.098;2023-06-10T13:42:59;28.72;50.42
70826;SHT31;58446;41.490;22.098;2023-06-10T13:45:25;28.62;50.69
70826;SHT31;58446;41.490;22.098;2023-06-10T13:47:51;28.58;50.83
70826;SHT31;58446;41.490;22.098;2023-06-10T13:50:17;28.66;51.06
70826;SHT31;58446;41.490;22.098;2023-06-10T13:52:42;28.63;51.04
70826;SHT31;58446;41.490;22.098;2023-06-10T13:55:08;28.73;50.56
70826;SHT31;58446;41.490;22.098;2023-06-10T13:57:34;28.79;51.69
70826;SHT31;58446;41.490;22.098;2023-06-10T14:00:00;28.92;51.01
70826;SHT31;58446;41.490;22.098;2023-06-10T14:02:26;29.04;50.26
70826;SHT31;58446;41.490;22.098;2023-06-10T14:04:52;29.11;49.69
70826;SHT31;58446;41.490;22.098;2023-06-10T14:07:17;29.16;49.07
70826;SHT31;58446;41.490;22.098;2023-06-10T14:09:43;29.18;48.54
70826;SHT31;58446;41.490;22.098;2023-06-10T14:12:09;29.18;47.52
70826;SHT31;58446;41.490;22.098;2023-06-10T14:14:36;29.17;46.63
70826;SHT31;58446;41.490;22.098;2023-06-10T14:17:02;29.14;46.94
70826;SHT31;58446;41.490;22.098;2023-06-10T14:19:30;29.13;48.33
70826;SHT31;58446;41.490;22.098;2023-06-10T14:21:55;29.18;47.16
70826;SHT31;58446;41.490;22.098;2023-06-10T14:24:22;29.27;47.83
70826;SHT31;58446;41.490;22.098;2023-06-10T14:26:47;29.37;48.15
70826;SHT31;58446;41.490;22.098;2023-06-10T14:29:13;29.34;47.97
70826;SHT31;58446;41.490;22.098;2023-06-10T14:31:43;29.31;47.76
70826;SHT31;58446;41.490;22.098;2023-06-10T14:34:09;29.35;47.51
70826;SHT31;58446;41.490;22.098;2023-06-10T14:36:35;29.35;46.83
70826;SHT31;58446;41.490;22.098;2023-06-10T14:39:02;29.34;45.98
70826;SHT31;58446;41.490;22.098;2023-06-10T14:41:28;29.33;45.90
70826;SHT31;58446;41.490;22.098;2023-06-10T14:43:53;29.31;46.28
70826;SHT31;58446;41.490;22.098;2023-06-10T14:46:19;29.33;46.48
70826;SHT31;58446;41.490;22.098;2023-06-10T14:48:47;29.33;46.11
70826;SHT31;58446;41.490;22.098;2023-06-10T14:51:13;29.28;45.95
70826;SHT31;58446;41.490;22.098;2023-06-10T14:53:39;29.30;46.13
70826;SHT31;58446;41.490;22.098;2023-06-10T14:56:05;29.24;45.98
70826;SHT31;58446;41.490;22.098;2023-06-10T14:58:30;29.26;46.17
70826;SHT31;58446;41.490;22.098;2023-06-10T15:00:56;29.20;46.34
70826;SHT31;58446;41.490;22.098;2023-06-10T15:03:22;29.10;46.75
70826;SHT31;58446;41.490;22.098;2023-06-10T15:05:47;29.06;47.28
70826;SHT31;58446;41.490;22.098;2023-06-10T15:08:13;29.02;48.08
70826;SHT31;58446;41.490;22.098;2023-06-10T15:10:39;29.03;48.43
70826;SHT31;58446;41.490;22.098;2023-06-10T15:13:05;29.07;47.76
70826;SHT31;58446;41.490;22.098;2023-06-10T15:15:31;29.10;47.93
70826;SHT31;58446;41.490;22.098;2023-06-10T15:17:56;29.10;48.13
70826;SHT31;58446;41.490;22.098;2023-06-10T15:20:22;29.16;47.91
70826;SHT31;58446;41.490;22.098;2023-06-10T15:22:48;29.10;48.53
70826;SHT31;58446;41.490;22.098;2023-06-10T15:25:14;29.08;48.49
70826;SHT31;58446;41.490;22.098;2023-06-10T15:27:39;29.11;48.68
70826;SHT31;58446;41.490;22.098;2023-06-10T15:30:06;29.13;48.92
70826;SHT31;58446;41.490;22.098;2023-06-10T15:32:31;29.17;48.80
70826;SHT31;58446;41.490;22.098;2023-06-10T15:34:57;29.16;48.19